Welcome to our Virtual Airline
Sign-in:

Flight MFC30851

  • Submitted By: Georg Werderitsch
  • Departure Airport: Lloyd R. Roundtree Seaplane Facility (63A)
  • Arrival Airport: Kake SPB (KAE)
  • Aircraft: DHC2 BEAVER (N217MM)
  • Flight Time: 00.39.39
  • Date Submitted: 2019/02/14
  • Route: STOP AT PORTAGE BAY DOCK (TF11)
  • Status: Accepted
Flight Details
Gross Revenue:
(5 load / $ 50.00 per unit
$ 250.00
Fuel Cost:
(63.9565 fuel used @ 5.1 / unit)
$ 326.18

Additional Log Information:

View Log

FS[13:04] ----- Flight Opened -----
FS[13:04] Cigar Box - 1.1.4.0
FS[13:04] FS: FSX
FS[13:04] FSUIPC: v4,973
FS[13:04] Flight Number: MFC30851
FS[13:04] FS Aircraft: DHC-2A N001MM New Misty Amphibian
FS[13:04] FS Model: DHC2
FS[13:04] FS Type: DeHavilland
FS[13:04] Departure: 63A
FS[13:04] Arrival: KAE
FS[13:04] Flight Level: 2500
FS[13:04] Flight Type: H
FS[13:04] Passengers: 5
FS[13:04] FOB: 570 lbs
FS[13:04] Gate: n/a
FS[13:04] NOTE: Parking Brake Ignored
FS[13:04] Crash Detection: Disabled
FS[13:04] Crash Detection Aircraft: Disabled
FS[13:04] Engines: 1 Piston
FS[13:04] NOTE: Boarding has started
FS[13:04] Autopilot: Engaged
FS[13:04] AGL: 3 ft
FS[13:04] AMSL: 3 ft
FS[13:04] Light Data: Beacon ON
FS[13:04] Main Door Closed
FS[13:04] COM1: 128.30
FS[13:04] COM2: 127.80
FS[13:04] Transponder: 1200
FS[13:04] NAV1: 113.70
FS[13:04] NAV2: 110.60
FS[13:04] ADF1: 284.0
FS[13:04] ADF2: 240.0
FS[13:04] Navigation Mode: NAV
FS[13:04] Engine 1: Started
FS[13:05] Flaps: Position 1
FS[13:05] NOTE: Taxi started
FS[13:05] NOTE: ----- TAKE OFF -----
FS[13:05] GS: 50 knots
FS[13:05] TAS: 62 knots
FS[13:05] IAS: 61 knots
FS[13:05] VS: 29 fpm
FS[13:05] FOB: 569 lbs
FS[13:05] Heading: 351°
FS[13:05] Pitch: 4°
FS[13:05] Bank: 0°
FS[13:05] Aircraft Weight: 4339,15 lbs
FS[13:05] Nearest Airport: 63A
FS[13:05] Distance: 0,09 miles
FS[13:05] Runway: ???
FS[13:05] Ground Surface: Water
FS[13:05] Ground Condition: Snow
FS[13:05] NOTE: Weather Report
FS[13:05] Wind Heading: 356°
FS[13:05] Wind Speed: 10 knots
FS[13:05] OAT: 12° C
FS[13:05] TAT: 12° C
FS[13:05] Precipitation: Heavy Rain
FS[13:05] Dew Point: 11° C
FS[13:05] Visibility: 35 miles
FS[13:05] METAR: No METAR available for 63A.
FS[13:05] NOTE: Climb started
FS[13:05] Flaps: Position 0
FS[13:05] GS: 71 knots
FS[13:05] TAS: 81 knots
FS[13:05] IAS: 81 knots
FS[13:05] VS: 346 fpm
FS[13:05] View Mode: Virtual Cockpit
FS[13:12] Flaps: Position 1
FS[13:12] GS: 116 knots
FS[13:12] TAS: 117 knots
FS[13:12] IAS: 117 knots
FS[13:12] VS: -523 fpm
FS[13:12] Flaps: Position 2
FS[13:12] GS: 110 knots
FS[13:12] TAS: 110 knots
FS[13:12] IAS: 110 knots
FS[13:12] VS: 309 fpm
FS[13:12] Flaps: Position 1
FS[13:12] GS: 83 knots
FS[13:12] TAS: 82 knots
FS[13:12] IAS: 82 knots
FS[13:12] VS: 359 fpm
FS[13:12] Flaps: Position 0
FS[13:12] GS: 85 knots
FS[13:12] TAS: 83 knots
FS[13:12] IAS: 83 knots
FS[13:12] VS: 449 fpm
FS[13:15] Flaps: Position 1
FS[13:15] GS: 93 knots
FS[13:15] TAS: 88 knots
FS[13:15] IAS: 88 knots
FS[13:15] VS: -981 fpm
FS[13:15] Flaps: Position 2
FS[13:15] GS: 95 knots
FS[13:15] TAS: 91 knots
FS[13:15] IAS: 91 knots
FS[13:15] VS: -396 fpm
FS[13:15] NOTE: ----- LANDED -----
FS[13:15] Landing Rate: -74,59 fpm
FS[13:15] GS: 62 knots
FS[13:15] TAS: 57 knots
FS[13:15] IAS: 57 knots
FS[13:15] VS: -71 fpm
FS[13:15] FOB: 530 lbs
FS[13:15] Heading: 247°
FS[13:15] Pitch: 4°
FS[13:15] Bank: 1°
FS[13:15] Aircraft Weight: 4300,21 lbs
FS[13:15] Nearest Airport: WPUC
FS[13:15] Distance: 0,36 miles
FS[13:15] Runway: ???
FS[13:15] Ground Surface: Water
FS[13:15] Ground Condition: Snow
FS[13:15] NOTE: Weather Report
FS[13:15] Wind Heading: 352°
FS[13:15] Wind Speed: 15 knots
FS[13:15] OAT: 12° C
FS[13:15] TAT: 13° C
FS[13:15] Precipitation: Heavy Rain
FS[13:15] Dew Point: 11° C
FS[13:15] Visibility: 35 miles
FS[13:15] METAR: KAEG 141155Z AUTO 00000KT 10SM OVC110 02/M10 A3003 RMK AO2 T00231100 10050 20002KAEJ 141155Z AUTO 17006KT 10SM SCT037 BKN060 OVC065 02/M04 A2981 RMK AO2 T00171040 10017 21002KAEL 141155Z AUTO 00000KT 7SM CLR M06/M06 A2949 RMK AO2KAEX 141153Z 14006KT 10SM CLR 09/07 A3002 RMK AO2 SLP172 T00940067 10100 20072 55020
FS[13:15] View Mode: Virtual Cockpit
FS[13:16] NOTE: Taxi started
FS[13:17] Flaps: Position 1
FS[13:17] Flaps: Position 0
FS[13:19] Engine 1: Stopped
FS[13:19] Engine 1: Started
FS[13:19] Flaps: Position 1
FS[13:19] Flaps: Position 0
FS[13:19] GS: 81 knots
FS[13:19] TAS: 75 knots
FS[13:19] IAS: 75 knots
FS[13:19] VS: 498 fpm
FS[13:19] View Mode: Virtual Cockpit
FS[13:27] Recovery: Flight Saved
FS[13:35] Recovery: Flight Saved
FS[13:41] Flaps: Position 1
FS[13:41] GS: 103 knots
FS[13:41] TAS: 114 knots
FS[13:41] IAS: 111 knots
FS[13:41] VS: 15 fpm
FS[13:41] Flaps: Position 2
FS[13:41] GS: 85 knots
FS[13:41] TAS: 95 knots
FS[13:41] IAS: 93 knots
FS[13:41] VS: -371 fpm
FS[13:42] NOTE: ----- LANDED -----
FS[13:42] Landing Rate: -289,89 fpm
FS[13:42] GS: 46 knots
FS[13:42] TAS: 55 knots
FS[13:42] IAS: 54 knots
FS[13:42] VS: -287 fpm
FS[13:42] FOB: 433 lbs
FS[13:42] Heading: 319°
FS[13:42] Pitch: 5°
FS[13:42] Bank: -2°
FS[13:42] Aircraft Weight: 4203,46 lbs
FS[13:42] Nearest Airport: GF5
FS[13:42] Distance: 2,49 miles
FS[13:42] Runway: ???
FS[13:42] Ground Surface: Water
FS[13:42] Ground Condition: Snow
FS[13:42] NOTE: Weather Report
FS[13:42] Wind Heading: 348°
FS[13:42] Wind Speed: 10 knots
FS[13:42] OAT: 16° C
FS[13:42] TAT: 17° C
FS[13:42] Precipitation: None
FS[13:42] Dew Point: 11° C
FS[13:42] Visibility: 30 miles
FS[13:42] METAR: KAEG 141155Z AUTO 00000KT 10SM OVC110 02/M10 A3003 RMK AO2 T00231100 10050 20002KAEJ 141155Z AUTO 17006KT 10SM SCT037 BKN060 OVC065 02/M04 A2981 RMK AO2 T00171040 10017 21002KAEL 141155Z AUTO 00000KT 7SM CLR M06/M06 A2949 RMK AO2KAEX 141153Z 14006KT 10SM CLR 09/07 A3002 RMK AO2 SLP172 T00940067 10100 20072 55020
FS[13:42] View Mode: Virtual Cockpit
FS[13:42] Flaps: Position 0
FS[13:42] Engine 1: Stopped
FS[13:42] Engine 1: Started
FS[13:43] Flaps: Position 1
FS[13:43] Flaps: Position 0
FS[13:43] GS: 68 knots
FS[13:43] TAS: 76 knots
FS[13:43] IAS: 74 knots
FS[13:43] VS: 245 fpm
FS[13:43] View Mode: Virtual Cockpit
FS[13:44] Flaps: Position 1
FS[13:44] GS: 97 knots
FS[13:44] TAS: 109 knots
FS[13:44] IAS: 106 knots
FS[13:44] VS: -45 fpm
FS[13:44] Flaps: Position 2
FS[13:44] GS: 75 knots
FS[13:44] TAS: 86 knots
FS[13:44] IAS: 84 knots
FS[13:44] VS: -562 fpm
FS[13:44] NOTE: ----- LANDED -----
FS[13:44] Landing Rate: -431,38 fpm
FS[13:44] GS: 46 knots
FS[13:44] TAS: 53 knots
FS[13:44] IAS: 51 knots
FS[13:44] VS: -422 fpm
FS[13:44] FOB: 429 lbs
FS[13:44] Heading: 283°
FS[13:44] Pitch: 5°
FS[13:44] Bank: 0°
FS[13:44] Aircraft Weight: 4199,01 lbs
FS[13:44] Nearest Airport: GF5
FS[13:44] Distance: 1,28 miles
FS[13:44] Runway: ???
FS[13:44] Ground Surface: Water
FS[13:44] Ground Condition: Snow
FS[13:44] NOTE: Weather Report
FS[13:44] Wind Heading: 342°
FS[13:44] Wind Speed: 10 knots
FS[13:44] OAT: 16° C
FS[13:44] TAT: 17° C
FS[13:44] Precipitation: None
FS[13:44] Dew Point: 11° C
FS[13:44] Visibility: 30 miles
FS[13:44] METAR: KAEG 141155Z AUTO 00000KT 10SM OVC110 02/M10 A3003 RMK AO2 T00231100 10050 20002KAEJ 141155Z AUTO 17006KT 10SM SCT037 BKN060 OVC065 02/M04 A2981 RMK AO2 T00171040 10017 21002KAEL 141155Z AUTO 00000KT 7SM CLR M06/M06 A2949 RMK AO2KAEX 141153Z 14006KT 10SM CLR 09/07 A3002 RMK AO2 SLP172 T00940067 10100 20072 55020
FS[13:44] View Mode: Virtual Cockpit
FS[13:44] Flaps: Position 1
FS[13:45] Engine 1: Stopped
FS[13:45] Gate: n/a
FS[13:45] NOTE: Flight Completed
FS[13:45] FS Aircraft: DHC-2A N001MM New Misty Amphibian
FS[13:45] FS Model: DHC2
FS[13:45] FS Type: DeHavilland
FS[13:45] FOB: 429 lbs
FS[13:45] Fuel Used: 141 lbs
FS[13:45] Flight Time: 00:39:39
FS[13:45] Flight Time (Dawn): 00:00:00
FS[13:45] Flight Time (Day): 00:39:39
FS[13:45] Flight Time (Dusk): 00:00:00
FS[13:45] Flight Time (Night): 00:00:00
FS[13:45] Total Landings: 3
FS[13:45] MaxSim Rate: 0x
FS[13:45] Cigar Box - 1.1.4.0
FS[13:45] ----- Flight Closed -----

Route Map